createdAt,value
2022-08-09T00:01:00.962Z,70.40
2022-08-09T00:04:05.874Z,73.68
2022-08-09T00:06:22.939Z,74.97
2022-08-09T00:08:52.335Z,70.70
2022-08-09T00:11:55.092Z,69.97
2022-08-09T00:14:21.745Z,71.22
2022-08-09T00:16:52.677Z,70.57
2022-08-09T00:19:21.765Z,78.40
2022-08-09T00:21:56.373Z,70.00
2022-08-09T00:24:27.459Z,73.40
2022-08-09T00:26:57.497Z,71.68
2022-08-09T00:29:39.904Z,71.53
2022-08-09T00:32:25.269Z,69.78
2022-08-09T00:34:54.442Z,73.38
2022-08-09T00:37:23.068Z,76.63
2022-08-09T00:40:13.729Z,72.40
2022-08-09T00:44:10.305Z,72.38
2022-08-09T00:45:30.468Z,75.53
2022-08-09T00:48:06.339Z,74.03
2022-08-09T00:50:37.896Z,74.93
2022-08-09T00:53:08.822Z,80.20
2022-08-09T00:56:04.693Z,81.60
2022-08-09T00:58:30.547Z,69.10
2022-08-09T01:01:00.735Z,67.15
2022-08-09T01:03:46.800Z,72.07
2022-08-09T01:06:53.433Z,76.53
2022-08-09T01:09:26.477Z,77.90
2022-08-09T01:12:13.756Z,80.78
2022-08-09T01:14:57.005Z,75.18
2022-08-09T01:17:34.573Z,70.65
2022-08-09T01:20:09.548Z,75.35
2022-08-09T01:24:00.747Z,81.80
2022-08-09T01:26:09.851Z,70.18
2022-08-09T01:28:45.403Z,82.90
2022-08-09T01:32:28.189Z,80.60
2022-08-09T01:34:09.378Z,77.72
2022-08-09T01:36:40.133Z,74.95
2022-08-09T01:39:09.215Z,74.47
2022-08-09T01:41:57.246Z,80.28
2022-08-09T01:44:32.036Z,75.03
2022-08-09T01:47:02.263Z,83.20
2022-08-09T01:49:39.081Z,82.25
2022-08-09T01:52:15.414Z,76.55
2022-08-09T01:54:48.520Z,75.78
2022-08-09T01:57:20.509Z,67.30
2022-08-09T01:59:53.704Z,68.80
2022-08-09T02:02:32.176Z,69.43
2022-08-09T02:05:05.632Z,72.85
2022-08-09T02:08:40.977Z,68.40
2022-08-09T02:10:38.508Z,68.50
2022-08-09T02:13:11.214Z,76.25
2022-08-09T02:15:49.439Z,66.47
2022-08-09T02:18:23.854Z,73.57
2022-08-09T02:20:57.107Z,75.45
2022-08-09T02:23:40.222Z,79.25
2022-08-09T02:26:26.776Z,81.68
2022-08-09T02:29:00.425Z,85.15
2022-08-09T02:31:35.454Z,87.97
2022-08-09T02:34:26.007Z,82.53
2022-08-09T02:37:07.215Z,80.05
2022-08-09T02:39:45.202Z,84.38
2022-08-09T02:42:24.828Z,69.72
2022-08-09T02:45:06.732Z,77.95
2022-08-09T02:47:57.968Z,74.78
2022-08-09T02:50:32.374Z,68.30
2022-08-09T02:53:08.356Z,85.13
2022-08-09T02:55:46.246Z,72.75
2022-08-09T02:58:36.876Z,71.53
2022-08-09T03:01:10.642Z,74.30
2022-08-09T03:04:17.231Z,75.78
2022-08-09T03:06:32.950Z,83.00
2022-08-09T03:09:03.023Z,85.82
2022-08-09T03:12:05.470Z,79.43
2022-08-09T03:14:28.289Z,85.55
2022-08-09T03:16:58.724Z,78.85
2022-08-09T03:19:58.002Z,79.68
2022-08-09T03:22:25.689Z,74.20
2022-08-09T03:25:06.186Z,82.30
2022-08-09T03:27:52.016Z,91.97
2022-08-09T03:30:29.991Z,79.53
2022-08-09T03:33:17.168Z,86.38
2022-08-09T03:36:13.142Z,82.50
2022-08-09T03:38:42.145Z,87.53
2022-08-09T03:41:14.791Z,91.45
2022-08-09T03:44:03.964Z,91.95
2022-08-09T03:46:36.658Z,89.43
2022-08-09T03:49:08.957Z,90.47
2022-08-09T03:51:43.974Z,89.15
2022-08-09T03:54:29.198Z,92.28
2022-08-09T03:57:00.675Z,96.20
2022-08-09T03:59:52.927Z,114.65
2022-08-09T04:02:26.137Z,105.10
2022-08-09T04:04:57.034Z,114.15
2022-08-09T04:07:33.638Z,127.65
2022-08-09T04:10:28.823Z,115.90
2022-08-09T04:13:03.977Z,119.70
2022-08-09T04:16:17.314Z,121.18
2022-08-09T04:18:22.326Z,104.95
2022-08-09T04:20:53.755Z,113.60
2022-08-09T04:23:25.724Z,121.07
2022-08-09T04:25:54.952Z,106.25
2022-08-09T04:28:33.484Z,116.78
2022-08-09T04:31:13.012Z,106.32
2022-08-09T04:33:47.508Z,102.00
2022-08-09T04:36:24.435Z,99.10
2022-08-09T04:38:55.420Z,89.88
2022-08-09T04:41:33.038Z,84.25
2022-08-09T04:44:06.959Z,80.68
2022-08-09T04:46:59.351Z,82.57
2022-08-09T04:49:52.863Z,77.22
2022-08-09T04:52:32.561Z,77.43
2022-08-09T04:55:04.159Z,78.25
2022-08-09T04:57:58.481Z,84.10
2022-08-09T05:00:31.945Z,114.78
2022-08-09T05:03:30.037Z,131.25
2022-08-09T05:06:06.669Z,117.53
2022-08-09T05:08:36.755Z,118.53
2022-08-09T05:11:08.941Z,106.85
2022-08-09T05:13:38.790Z,115.38
2022-08-09T05:16:08.627Z,99.88
2022-08-09T05:18:57.529Z,107.20
2022-08-09T05:21:29.625Z,108.40
2022-08-09T05:24:01.360Z,114.35
2022-08-09T05:26:36.990Z,108.88
2022-08-09T05:29:22.092Z,95.97
2022-08-09T05:31:57.355Z,104.57
2022-08-09T05:34:31.155Z,108.72
2022-08-09T05:37:06.071Z,102.15
2022-08-09T05:39:43.480Z,104.57
2022-08-09T05:42:17.273Z,124.97
2022-08-09T05:44:52.176Z,105.40
2022-08-09T05:47:22.629Z,123.72
2022-08-09T05:50:29.895Z,122.40
2022-08-09T05:52:41.851Z,111.35
2022-08-09T05:55:18.266Z,113.35
2022-08-09T05:57:57.604Z,120.63
2022-08-09T06:00:29.084Z,117.82
2022-08-09T06:02:59.007Z,119.78
2022-08-09T06:05:31.031Z,122.35
2022-08-09T06:08:18.917Z,109.63
2022-08-09T06:10:49.809Z,118.47
2022-08-09T06:13:20.487Z,132.70
2022-08-09T06:15:51.367Z,132.55
2022-08-09T06:18:23.844Z,123.60
2022-08-09T06:20:54.702Z,129.98
2022-08-09T06:23:57.995Z,135.18
2022-08-09T06:26:21.233Z,142.88
2022-08-09T06:29:00.368Z,130.93
2022-08-09T06:31:31.600Z,126.80
2022-08-09T06:34:09.590Z,109.15
2022-08-09T06:36:43.834Z,123.70
2022-08-09T06:39:13.620Z,120.70
2022-08-09T06:42:08.959Z,133.63
2022-08-09T06:44:34.649Z,126.75
2022-08-09T06:47:04.444Z,119.93
2022-08-09T06:49:52.385Z,122.07
2022-08-09T06:52:26.251Z,134.95
2022-08-09T06:54:55.203Z,125.43
2022-08-09T06:57:25.831Z,134.20
2022-08-09T07:00:54.788Z,121.53
2022-08-09T07:03:06.128Z,121.30
2022-08-09T07:05:53.746Z,124.72
2022-08-09T07:08:24.710Z,126.95
2022-08-09T07:10:53.863Z,127.82
2022-08-09T07:13:27.943Z,118.88
2022-08-09T07:16:41.707Z,124.80
2022-08-09T07:18:49.979Z,131.70
2022-08-09T07:21:18.947Z,110.05
2022-08-09T07:23:58.136Z,125.78
2022-08-09T07:26:27.612Z,125.50
2022-08-09T07:29:08.200Z,122.13
2022-08-09T07:31:45.373Z,121.20
2022-08-09T07:34:20.644Z,124.00
2022-08-09T07:36:50.403Z,117.53
2022-08-09T07:39:40.492Z,118.00
2022-08-09T07:42:11.588Z,121.82
2022-08-09T07:44:51.769Z,111.22
2022-08-09T07:47:24.423Z,106.82
2022-08-09T07:50:04.411Z,101.88
2022-08-09T07:52:38.514Z,112.53
2022-08-09T07:55:10.005Z,115.70
2022-08-09T07:57:47.019Z,111.63
2022-08-09T08:00:20.485Z,111.47
2022-08-09T08:03:08.384Z,115.10
2022-08-09T08:05:57.641Z,111.50
2022-08-09T08:09:01.897Z,103.25
2022-08-09T08:12:24.034Z,115.50
2022-08-09T08:14:06.463Z,106.78
2022-08-09T08:16:35.276Z,107.65
2022-08-09T08:19:09.741Z,112.13
2022-08-09T08:21:39.590Z,114.18
2022-08-09T08:24:12.232Z,91.80
2022-08-09T08:26:56.254Z,103.18
2022-08-09T08:29:28.108Z,90.13
2022-08-09T08:32:04.302Z,91.57
2022-08-09T08:34:36.595Z,95.28
2022-08-09T08:37:05.781Z,78.20
2022-08-09T08:39:43.500Z,88.35
2022-08-09T08:42:13.698Z,91.03
2022-08-09T08:44:46.339Z,85.22
2022-08-09T08:47:16.433Z,84.05
2022-08-09T08:49:49.312Z,75.97
2022-08-09T08:52:52.653Z,97.93
2022-08-09T08:55:10.401Z,86.00
2022-08-09T08:57:39.236Z,84.13
2022-08-09T09:00:16.976Z,137.18
2022-08-09T09:03:12.374Z,93.45
2022-08-09T09:05:58.618Z,83.03
2022-08-09T09:08:37.705Z,79.32
2022-08-09T09:11:17.887Z,94.35
2022-08-09T09:13:56.743Z,92.20
2022-08-09T09:16:30.855Z,103.63
2022-08-09T09:19:37.275Z,86.57
2022-08-09T09:22:26.612Z,75.85
2022-08-09T09:26:02.378Z,83.65
2022-08-09T09:28:06.344Z,74.25
2022-08-09T09:30:52.868Z,66.88
2022-08-09T09:33:21.987Z,70.38
2022-08-09T09:36:02.626Z,70.35
2022-08-09T09:38:48.248Z,75.22
2022-08-09T09:41:32.737Z,64.43
2022-08-09T09:44:11.470Z,60.88
2022-08-09T09:46:50.899Z,75.22
2022-08-09T09:49:56.534Z,76.10
2022-08-09T09:52:16.266Z,75.45
2022-08-09T09:54:48.691Z,52.75
2022-08-09T09:58:02.503Z,54.08
2022-08-09T10:00:24.919Z,43.33
2022-08-09T10:02:55.638Z,56.67
2022-08-09T10:05:27.065Z,44.67
2022-08-09T10:08:27.927Z,37.83
2022-08-09T10:10:58.665Z,36.17
2022-08-09T10:13:43.315Z,29.92
2022-08-09T10:16:57.723Z,31.50
2022-08-09T10:19:06.302Z,30.63
2022-08-09T10:21:48.769Z,30.33
2022-08-09T10:24:31.386Z,27.05
2022-08-09T10:27:10.347Z,26.63
2022-08-09T10:30:49.435Z,27.58
2022-08-09T10:32:42.253Z,33.88
2022-08-09T10:35:13.320Z,25.77
2022-08-09T10:37:42.192Z,21.90
2022-08-09T10:40:35.208Z,23.73
2022-08-09T10:43:03.723Z,25.88
2022-08-09T10:45:35.539Z,19.20
2022-08-09T10:48:26.323Z,21.67
2022-08-09T10:51:09.640Z,21.65
2022-08-09T10:53:54.816Z,21.65
2022-08-09T10:56:26.892Z,26.40
2022-08-09T10:58:58.799Z,20.35
2022-08-09T11:03:14.429Z,22.83
2022-08-09T11:04:32.639Z,24.00
2022-08-09T11:07:27.767Z,25.60
2022-08-09T11:10:16.507Z,23.77
2022-08-09T11:13:49.522Z,24.48
2022-08-09T11:16:37.315Z,28.63
2022-08-09T11:19:11.349Z,28.10
2022-08-09T11:21:56.851Z,20.35
2022-08-09T11:25:04.707Z,19.65
2022-08-09T11:28:03.692Z,19.95
2022-08-09T11:30:34.637Z,22.77
2022-08-09T11:33:13.149Z,23.10
2022-08-09T11:35:50.168Z,24.42
2022-08-09T11:38:32.592Z,27.30
2022-08-09T11:41:05.133Z,25.63
2022-08-09T11:43:42.301Z,24.77
2022-08-09T11:46:11.120Z,24.33
2022-08-09T11:48:52.299Z,25.13
2022-08-09T11:53:00.836Z,28.13
2022-08-09T11:54:29.032Z,22.13
2022-08-09T11:57:47.363Z,19.83
2022-08-09T12:00:30.783Z,29.10
2022-08-09T12:03:50.254Z,31.65
2022-08-09T12:05:52.882Z,89.15
2022-08-09T12:08:24.039Z,67.35
2022-08-09T12:10:55.654Z,34.33
2022-08-09T12:14:07.941Z,36.42
2022-08-09T12:16:37.383Z,35.80
2022-08-09T12:19:09.670Z,29.58
2022-08-09T12:21:50.720Z,61.78
2022-08-09T12:24:25.654Z,44.45
2022-08-09T12:29:13.811Z,60.47
2022-08-09T12:30:01.771Z,40.67
2022-08-09T12:32:44.235Z,54.50
2022-08-09T12:35:19.153Z,18.38
2022-08-09T12:37:51.823Z,21.30
2022-08-09T12:40:23.385Z,38.60
2022-08-09T12:42:54.165Z,20.30
2022-08-09T12:45:33.707Z,20.48
2022-08-09T12:48:04.597Z,19.60
2022-08-09T12:50:35.796Z,16.10
2022-08-09T12:53:09.651Z,19.38
2022-08-09T12:56:15.156Z,22.80
2022-08-09T12:58:42.499Z,76.63
2022-08-09T13:01:26.512Z,70.13
2022-08-09T13:03:59.718Z,24.08
2022-08-09T13:06:34.044Z,14.35
2022-08-09T13:09:09.060Z,15.90
2022-08-09T13:11:42.266Z,15.95
2022-08-09T13:14:40.942Z,13.55
2022-08-09T13:17:08.594Z,75.28
2022-08-09T13:20:09.040Z,17.00
2022-08-09T13:22:35.195Z,18.17
2022-08-09T13:25:11.899Z,29.92
2022-08-09T13:27:48.603Z,62.53
2022-08-09T13:30:50.819Z,40.63
2022-08-09T13:33:23.993Z,22.17
2022-08-09T13:36:41.467Z,17.50
2022-08-09T13:38:57.506Z,15.15
2022-08-09T13:41:58.353Z,20.55
2022-08-09T13:44:17.881Z,43.78
2022-08-09T13:47:29.789Z,66.93
2022-08-09T13:49:55.787Z,39.40
2022-08-09T13:52:26.027Z,22.50
2022-08-09T13:55:00.115Z,18.92
2022-08-09T13:57:39.317Z,16.92
2022-08-09T14:00:12.985Z,14.07
2022-08-09T14:03:03.222Z,30.33
2022-08-09T14:06:00.034Z,35.53
2022-08-09T14:08:21.631Z,15.52
2022-08-09T14:10:52.883Z,12.48
2022-08-09T14:14:15.945Z,16.98
2022-08-09T14:16:16.195Z,14.98
2022-08-09T14:18:49.822Z,30.75
2022-08-09T14:21:22.493Z,44.20
2022-08-09T14:23:55.263Z,15.48
2022-08-09T14:26:25.394Z,18.02
2022-08-09T14:29:07.953Z,16.10
2022-08-09T14:31:54.759Z,14.00
2022-08-09T14:34:31.134Z,14.27
2022-08-09T14:37:07.428Z,13.63
2022-08-09T14:39:45.562Z,13.02
2022-08-09T14:42:31.670Z,18.85
2022-08-09T14:46:58.524Z,15.48
2022-08-09T14:47:58.041Z,15.32
2022-08-09T14:50:32.772Z,28.55
2022-08-09T14:53:02.610Z,16.70
2022-08-09T14:55:32.787Z,18.38
2022-08-09T14:58:03.644Z,13.30
2022-08-09T15:00:36.486Z,16.20
2022-08-09T15:03:07.032Z,14.48
2022-08-09T15:05:36.503Z,13.18
2022-08-09T15:08:05.892Z,12.35
2022-08-09T15:10:39.859Z,11.43
2022-08-09T15:13:08.755Z,14.27
2022-08-09T15:15:39.742Z,13.45
2022-08-09T15:18:14.613Z,13.15
2022-08-09T15:21:56.529Z,13.20
2022-08-09T15:24:05.612Z,12.18
2022-08-09T15:26:30.736Z,13.98
2022-08-09T15:29:04.118Z,10.40
2022-08-09T15:31:42.026Z,32.60
2022-08-09T15:34:31.827Z,18.48
2022-08-09T15:37:04.236Z,11.43
2022-08-09T15:39:43.749Z,11.25
2022-08-09T15:42:22.310Z,12.02
2022-08-09T15:44:51.414Z,153.63
2022-08-09T15:47:22.645Z,25.48
2022-08-09T15:50:04.234Z,14.90
2022-08-09T15:52:35.184Z,11.52
2022-08-09T15:55:04.178Z,14.77
2022-08-09T15:57:35.147Z,14.45
2022-08-09T16:00:08.406Z,29.83
2022-08-09T16:02:38.797Z,9.52
2022-08-09T16:05:08.849Z,10.07
2022-08-09T16:07:45.737Z,22.70
2022-08-09T16:10:38.591Z,16.88
2022-08-09T16:13:03.746Z,17.98
2022-08-09T16:16:04.629Z,9.13
2022-08-09T16:18:22.280Z,9.48
2022-08-09T16:20:51.445Z,8.55
2022-08-09T16:23:21.619Z,11.02
2022-08-09T16:25:50.233Z,10.38
2022-08-09T16:28:18.759Z,8.90
2022-08-09T16:30:58.814Z,9.32
2022-08-09T16:33:30.947Z,8.60
2022-08-09T16:36:10.736Z,7.50
2022-08-09T16:38:43.151Z,12.30
2022-08-09T16:41:16.776Z,8.85
2022-08-09T16:43:47.050Z,9.98
2022-08-09T16:46:18.528Z,13.10
2022-08-09T16:48:59.972Z,11.55
2022-08-09T16:51:37.510Z,13.38
2022-08-09T16:54:28.299Z,11.15
2022-08-09T16:56:55.031Z,13.25
2022-08-09T16:59:25.056Z,10.70
2022-08-09T17:01:53.949Z,12.50
2022-08-09T17:04:28.878Z,9.13
2022-08-09T17:08:41.664Z,11.98
2022-08-09T17:09:47.582Z,9.90
2022-08-09T17:12:17.063Z,10.00
2022-08-09T17:14:46.369Z,10.10
2022-08-09T17:17:26.234Z,17.73
2022-08-09T17:20:28.298Z,11.30
2022-08-09T17:22:52.063Z,11.38
2022-08-09T17:25:23.527Z,14.80
2022-08-09T17:27:54.394Z,9.05
2022-08-09T17:30:25.701Z,13.55
2022-08-09T17:33:00.932Z,7.60
2022-08-09T17:35:41.140Z,29.58
2022-08-09T17:38:32.654Z,11.40
2022-08-09T17:41:00.815Z,7.30
2022-08-09T17:43:35.087Z,7.63
2022-08-09T17:46:07.095Z,8.73
2022-08-09T17:48:39.476Z,9.32
2022-08-09T17:51:17.252Z,10.45
2022-08-09T17:53:51.559Z,7.32
2022-08-09T17:56:21.657Z,10.38
2022-08-09T17:58:50.199Z,10.38
2022-08-09T18:01:22.572Z,11.25
2022-08-09T18:03:54.235Z,8.25
2022-08-09T18:06:32.275Z,11.75
2022-08-09T18:09:03.526Z,9.38
2022-08-09T18:12:05.727Z,9.35
2022-08-09T18:14:23.597Z,8.98
2022-08-09T18:16:53.983Z,10.95
2022-08-09T18:20:55.070Z,8.82
2022-08-09T18:22:17.003Z,11.70
2022-08-09T18:24:46.713Z,7.25
2022-08-09T18:27:49.217Z,11.00
2022-08-09T18:30:42.267Z,10.43
2022-08-09T18:32:54.962Z,11.05
2022-08-09T18:35:59.234Z,8.40
2022-08-09T18:38:14.287Z,12.32
2022-08-09T18:40:45.126Z,6.57
2022-08-09T18:43:15.755Z,10.52
2022-08-09T18:46:49.086Z,51.47
2022-08-09T18:48:33.731Z,17.20
2022-08-09T18:51:04.305Z,8.15
2022-08-09T18:53:56.445Z,9.85
2022-08-09T18:56:27.816Z,9.32
2022-08-09T18:58:57.141Z,11.43
2022-08-09T19:01:26.095Z,10.13
2022-08-09T19:04:06.380Z,12.13
2022-08-09T19:06:38.393Z,8.82
2022-08-09T19:09:13.633Z,9.25
2022-08-09T19:11:57.770Z,9.70
2022-08-09T19:14:29.123Z,12.43
2022-08-09T19:16:58.133Z,8.63
2022-08-09T19:19:28.246Z,11.48
2022-08-09T19:22:07.165Z,13.90
2022-08-09T19:25:09.925Z,11.95
2022-08-09T19:27:28.669Z,10.25
2022-08-09T19:30:21.497Z,10.85
2022-08-09T19:32:46.197Z,16.50
2022-08-09T19:35:26.075Z,10.02
2022-08-09T19:37:57.844Z,11.40
2022-08-09T19:40:33.958Z,10.27
2022-08-09T19:43:10.334Z,10.75
2022-08-09T19:45:44.902Z,11.38
2022-08-09T19:48:15.892Z,14.25
2022-08-09T19:51:04.814Z,10.68
2022-08-09T19:53:45.229Z,8.90
2022-08-09T19:56:17.417Z,10.57
2022-08-09T19:59:40.110Z,10.30
2022-08-09T20:01:53.228Z,13.75
2022-08-09T20:04:40.518Z,13.43
2022-08-09T20:07:22.417Z,9.60
2022-08-09T20:09:51.334Z,13.25
2022-08-09T20:12:29.801Z,15.20
2022-08-09T20:16:35.815Z,14.50
2022-08-09T20:17:54.913Z,11.95
2022-08-09T20:20:24.634Z,12.35
2022-08-09T20:22:56.074Z,11.68
2022-08-09T20:25:25.420Z,13.30
2022-08-09T20:27:55.709Z,11.43
2022-08-09T20:30:25.024Z,19.88
2022-08-09T20:32:53.871Z,15.57
2022-08-09T20:35:22.589Z,16.23
2022-08-09T20:38:20.965Z,17.35
2022-08-09T20:40:41.150Z,12.85
2022-08-09T20:43:18.404Z,19.65
2022-08-09T20:45:59.710Z,14.95
2022-08-09T20:48:31.810Z,19.38
2022-08-09T20:51:01.354Z,16.60
2022-08-09T20:53:36.348Z,18.80
2022-08-09T20:56:20.397Z,18.92
2022-08-09T20:58:57.836Z,22.05
2022-08-09T21:01:34.931Z,18.42
2022-08-09T21:05:54.125Z,16.00
2022-08-09T21:07:11.678Z,14.43
2022-08-09T21:09:55.401Z,16.30
2022-08-09T21:15:16.467Z,14.35
2022-08-09T21:18:22.356Z,14.23
2022-08-09T21:20:35.725Z,13.05
2022-08-09T21:23:04.997Z,17.30
2022-08-09T21:25:59.156Z,17.15
2022-08-09T21:28:33.805Z,14.18
2022-08-09T21:31:16.880Z,13.75
2022-08-09T21:33:50.358Z,10.93
2022-08-09T21:36:23.210Z,13.45
2022-08-09T21:38:57.782Z,14.70
2022-08-09T21:42:05.178Z,16.13
2022-08-09T21:44:34.404Z,15.00
2022-08-09T21:47:08.687Z,11.38
2022-08-09T21:49:40.246Z,13.70
2022-08-09T21:52:14.942Z,14.68
2022-08-09T21:55:03.132Z,17.92
2022-08-09T21:57:39.513Z,19.70
2022-08-09T22:00:25.968Z,14.60
2022-08-09T22:02:59.497Z,18.00
2022-08-09T22:05:36.109Z,17.35
2022-08-09T22:08:13.842Z,19.90
2022-08-09T22:11:50.228Z,14.18
2022-08-09T22:13:34.936Z,21.77
2022-08-09T22:16:07.850Z,15.70
2022-08-09T22:18:54.484Z,14.02
2022-08-09T22:21:27.377Z,12.68
2022-08-09T22:24:16.925Z,18.90
2022-08-09T22:26:51.045Z,18.05
2022-08-09T22:29:26.814Z,18.65
2022-08-09T22:32:01.246Z,18.13
2022-08-09T22:34:31.238Z,21.65
2022-08-09T22:37:00.483Z,20.85
2022-08-09T22:39:55.781Z,14.85
2022-08-09T22:42:22.692Z,16.80
2022-08-09T22:45:00.141Z,17.15
2022-08-09T22:48:16.013Z,17.70
2022-08-09T22:50:33.315Z,18.05
2022-08-09T22:53:03.629Z,21.10
2022-08-09T22:56:06.249Z,20.33
2022-08-09T22:58:33.150Z,18.70
2022-08-09T23:01:03.568Z,16.70
2022-08-09T23:04:03.866Z,16.98
2022-08-09T23:06:29.961Z,17.20
2022-08-09T23:09:06.164Z,23.27
2022-08-09T23:11:35.601Z,19.73
2022-08-09T23:14:10.261Z,23.13
2022-08-09T23:16:46.532Z,15.45
2022-08-09T23:19:15.120Z,15.18
2022-08-09T23:21:44.986Z,16.23
2022-08-09T23:24:13.771Z,21.88
2022-08-09T23:26:42.642Z,15.10
2022-08-09T23:29:13.947Z,19.35
2022-08-09T23:31:43.137Z,17.17
2022-08-09T23:34:11.905Z,13.40
2022-08-09T23:36:41.095Z,17.42
2022-08-09T23:39:11.113Z,17.40
2022-08-09T23:41:39.638Z,18.40
2022-08-09T23:44:08.186Z,18.90
2022-08-09T23:46:36.710Z,18.33
2022-08-09T23:49:05.500Z,15.98
2022-08-09T23:51:34.118Z,13.65
2022-08-09T23:54:03.534Z,14.18
2022-08-09T23:56:52.394Z,17.88
2022-08-09T23:59:24.486Z,24.85
